Time;durP1;ratioP1;P1;durP2;ratioP2;P2;SDS_P1;SDS_P2;PMS_P1;PMS_P2;Temp;Humidity;BMP_temperature;BMP_pressure;BME280_temperature;BME280_humidity;BME280_pressure;Samples;Min_cycle;Max_cycle;Signal;HPM_P1;HPM_P2
2021/07/08 00:00:06;;;;;;;;;;;14.90;99.90;;;;;;5116041;28;19927;-86
2021/07/08 00:02:33;;;;;;;;;;;14.90;99.90;;;;;;5115733;28;19934;-86
2021/07/08 00:05:00;;;;;;;;;;;14.90;99.90;;;;;;5115756;28;20344;-86
2021/07/08 00:07:27;;;;;;;;;;;14.80;99.90;;;;;;5115628;28;19930;-86
2021/07/08 00:09:54;;;;;;;;;;;14.80;99.90;;;;;;5115877;28;19923;-85
2021/07/08 00:12:22;;;;;;;;;;;14.70;99.90;;;;;;5115891;28;19927;-85
2021/07/08 00:14:49;;;;;;;;;;;14.70;99.90;;;;;;5115675;28;19924;-86
2021/07/08 00:17:16;;;;;;;;;;;14.70;99.90;;;;;;5115720;28;19946;-86
2021/07/08 00:19:43;;;;;;;;;;;14.60;99.90;;;;;;5115728;28;20227;-85
2021/07/08 00:22:09;;;;;;;;;;;14.60;99.90;;;;;;5115856;28;19924;-86
2021/07/08 00:24:36;;;;;;;;;;;14.60;99.90;;;;;;5115938;28;19924;-86
2021/07/08 00:27:03;;;;;;;;;;;14.60;99.90;;;;;;5115049;28;19927;-86
2021/07/08 00:29:31;;;;;;;;;;;14.50;99.90;;;;;;5112175;28;20336;-86
2021/07/08 00:31:58;;;;;;;;;;;14.50;99.90;;;;;;5095110;28;19930;-86
2021/07/08 00:34:25;;;;;;;;;;;14.40;99.90;;;;;;5095044;28;19924;-86
2021/07/08 00:36:52;;;;;;;;;;;14.40;99.90;;;;;;5095492;28;19928;-86
2021/07/08 00:39:19;;;;;;;;;;;14.30;99.90;;;;;;5095252;28;19924;-86
2021/07/08 00:41:46;;;;;;;;;;;14.30;99.90;;;;;;5095502;28;20248;-86
2021/07/08 00:44:13;;;;;;;;;;;14.30;99.90;;;;;;5095208;28;19924;-85
2021/07/08 00:46:41;;;;;;;;;;;14.30;99.90;;;;;;5094945;28;19935;-84
2021/07/08 00:49:08;;;;;;;;;;;14.20;99.90;;;;;;5094909;28;19924;-86
2021/07/08 00:51:35;;;;;;;;;;;14.20;99.90;;;;;;5095431;28;19924;-86
2021/07/08 00:54:01;;;;;;;;;;;14.20;99.90;;;;;;5094985;28;19935;-85
2021/07/08 00:56:33;;;;;;;;;;;14.20;99.90;;;;;;5094846;28;19924;-86
2021/07/08 00:59:04;;;;;;;;;;;14.20;99.90;;;;;;5094880;28;19932;-86
2021/07/08 01:01:31;;;;;;;;;;;14.20;99.90;;;;;;5094817;28;19934;-86
2021/07/08 01:04:01;;;;;;;;;;;14.10;99.90;;;;;;5094940;28;20038;-85
2021/07/08 01:06:28;;;;;;;;;;;14.10;99.90;;;;;;5094580;28;19936;-85
2021/07/08 01:08:55;;;;;;;;;;;14.10;99.90;;;;;;5094941;28;19934;-85
2021/07/08 01:11:22;;;;;;;;;;;14.00;99.90;;;;;;5094862;28;19928;-86
2021/07/08 01:13:49;;;;;;;;;;;14.00;99.90;;;;;;5094743;28;19924;-85
2021/07/08 01:16:16;;;;;;;;;;;14.00;99.90;;;;;;5094712;28;19931;-85
2021/07/08 01:18:43;;;;;;;;;;;14.00;99.90;;;;;;5094942;28;19924;-86
2021/07/08 01:21:25;;;;;;;;;;;13.90;99.90;;;;;;5094908;28;19924;-86
2021/07/08 01:23:52;;;;;;;;;;;13.90;99.90;;;;;;5094532;28;19935;-86
2021/07/08 01:26:19;;;;;;;;;;;13.80;99.90;;;;;;5094569;28;19925;-85
2021/07/08 01:28:46;;;;;;;;;;;13.80;99.90;;;;;;5094602;28;20328;-85
2021/07/08 01:31:13;;;;;;;;;;;13.80;99.90;;;;;;5094581;28;19924;-85
2021/07/08 01:33:39;;;;;;;;;;;13.80;99.90;;;;;;5094802;28;19924;-85
2021/07/08 01:36:06;;;;;;;;;;;13.80;99.90;;;;;;5094942;28;20275;-86
2021/07/08 01:38:34;;;;;;;;;;;13.80;99.90;;;;;;5094462;28;19928;-86
2021/07/08 01:41:01;;;;;;;;;;;13.70;99.90;;;;;;5098292;28;20382;-86
2021/07/08 01:43:28;;;;;;;;;;;13.70;99.90;;;;;;5098048;28;19924;-85
2021/07/08 01:45:55;;;;;;;;;;;13.70;99.90;;;;;;5098089;28;19924;-86
2021/07/08 01:48:22;;;;;;;;;;;13.70;99.90;;;;;;5098212;28;19938;-85
2021/07/08 01:50:49;;;;;;;;;;;13.70;99.90;;;;;;5098098;28;19935;-86
2021/07/08 01:53:17;;;;;;;;;;;13.70;99.90;;;;;;5098007;28;19924;-86
2021/07/08 01:55:45;;;;;;;;;;;13.60;99.90;;;;;;5097849;28;19981;-86
2021/07/08 01:58:12;;;;;;;;;;;13.60;99.90;;;;;;5097682;28;19938;-86
2021/07/08 02:00:38;;;;;;;;;;;13.60;99.90;;;;;;5097922;28;20306;-86
2021/07/08 02:03:05;;;;;;;;;;;13.50;99.90;;;;;;5097672;28;19928;-86
2021/07/08 02:05:32;;;;;;;;;;;13.50;99.90;;;;;;5097653;28;19930;-86
2021/07/08 02:07:59;;;;;;;;;;;13.50;99.90;;;;;;5097570;28;20341;-85
2021/07/08 02:10:26;;;;;;;;;;;13.50;99.90;;;;;;5097646;28;19931;-85
2021/07/08 02:12:54;;;;;;;;;;;13.40;99.90;;;;;;5097566;28;19925;-85
2021/07/08 02:15:21;;;;;;;;;;;13.40;99.90;;;;;;5097753;28;19925;-85
2021/07/08 02:17:48;;;;;;;;;;;13.40;99.90;;;;;;5097655;28;19981;-86
2021/07/08 02:20:15;;;;;;;;;;;13.30;99.90;;;;;;5097369;28;19924;-85
2021/07/08 02:22:42;;;;;;;;;;;13.30;99.90;;;;;;5097412;28;19942;-86
2021/07/08 02:25:09;;;;;;;;;;;13.20;99.90;;;;;;5097372;28;20348;-86
2021/07/08 02:27:37;;;;;;;;;;;13.20;99.90;;;;;;5097347;28;19934;-86
2021/07/08 02:30:07;;;;;;;;;;;13.20;99.90;;;;;;5097284;28;20352;-86
2021/07/08 02:32:34;;;;;;;;;;;13.10;99.90;;;;;;5097170;28;19924;-86
2021/07/08 02:35:01;;;;;;;;;;;13.10;99.90;;;;;;5097338;28;20366;-86
2021/07/08 02:37:28;;;;;;;;;;;13.10;99.90;;;;;;5096948;28;19923;-86
2021/07/08 02:39:55;;;;;;;;;;;13.10;99.90;;;;;;5097296;28;19924;-86
2021/07/08 02:42:22;;;;;;;;;;;13.10;99.90;;;;;;5097278;28;19938;-86
2021/07/08 02:44:48;;;;;;;;;;;13.00;99.90;;;;;;5097000;28;20019;-86
2021/07/08 02:47:17;;;;;;;;;;;13.00;99.90;;;;;;5096820;28;20374;-86
2021/07/08 02:49:43;;;;;;;;;;;13.00;99.90;;;;;;5096531;28;19925;-86
2021/07/08 02:52:10;;;;;;;;;;;13.00;99.90;;;;;;5096779;28;19924;-86
2021/07/08 02:54:37;;;;;;;;;;;12.90;99.90;;;;;;5096945;28;20255;-86
2021/07/08 02:57:04;;;;;;;;;;;13.00;99.90;;;;;;5096760;28;19924;-86
2021/07/08 02:59:31;;;;;;;;;;;12.90;99.90;;;;;;5096732;28;19924;-86
2021/07/08 03:01:58;;;;;;;;;;;12.90;99.90;;;;;;5096623;28;20366;-86
2021/07/08 03:04:26;;;;;;;;;;;12.80;99.90;;;;;;5096494;28;19934;-86
2021/07/08 03:06:53;;;;;;;;;;;12.80;99.90;;;;;;5096779;28;20019;-86
2021/07/08 03:09:20;;;;;;;;;;;12.80;99.90;;;;;;5096561;28;19989;-86
2021/07/08 03:11:47;;;;;;;;;;;12.80;99.90;;;;;;5096781;28;19923;-86
2021/07/08 03:14:14;;;;;;;;;;;12.80;99.90;;;;;;5096698;28;20023;-86
2021/07/08 03:16:40;;;;;;;;;;;12.90;99.90;;;;;;5096265;28;20253;-86
2021/07/08 03:19:07;;;;;;;;;;;12.90;99.90;;;;;;5096587;28;19924;-86
2021/07/08 03:21:37;;;;;;;;;;;12.90;99.90;;;;;;5096285;28;19924;-86
2021/07/08 03:24:04;;;;;;;;;;;12.90;99.90;;;;;;5096020;28;20252;-86
2021/07/08 03:26:31;;;;;;;;;;;12.90;99.90;;;;;;5096060;28;19924;-86
2021/07/08 03:28:57;;;;;;;;;;;12.90;99.90;;;;;;5096176;28;19924;-86
2021/07/08 03:31:24;;;;;;;;;;;12.90;99.90;;;;;;5096004;28;19932;-86
2021/07/08 03:33:51;;;;;;;;;;;12.80;99.90;;;;;;5095970;28;19931;-86
2021/07/08 03:36:18;;;;;;;;;;;12.80;99.90;;;;;;5096231;28;19924;-86
2021/07/08 03:38:46;;;;;;;;;;;12.80;99.90;;;;;;5095998;28;19935;-86
2021/07/08 03:41:13;;;;;;;;;;;12.80;99.90;;;;;;5095941;28;20049;-86
2021/07/08 03:43:40;;;;;;;;;;;12.80;99.90;;;;;;5095908;28;19931;-86
2021/07/08 03:46:07;;;;;;;;;;;12.80;99.90;;;;;;5095917;28;19924;-86
2021/07/08 03:48:34;;;;;;;;;;;12.80;99.90;;;;;;5096349;28;20317;-86
2021/07/08 03:51:00;;;;;;;;;;;12.80;99.90;;;;;;5095870;28;19935;-86
2021/07/08 03:53:27;;;;;;;;;;;12.80;99.90;;;;;;5095639;28;19935;-85
2021/07/08 03:55:57;;;;;;;;;;;12.80;99.90;;;;;;5095883;28;19985;-86
2021/07/08 03:58:23;;;;;;;;;;;12.80;99.90;;;;;;5095495;28;19924;-86
2021/07/08 04:00:51;;;;;;;;;;;12.80;99.90;;;;;;5095727;28;19935;-87
2021/07/08 04:03:20;;;;;;;;;;;12.80;99.90;;;;;;5095178;28;19978;-86
2021/07/08 04:05:47;;;;;;;;;;;12.80;99.90;;;;;;5095675;28;19924;-86
2021/07/08 04:08:14;;;;;;;;;;;12.80;99.90;;;;;;5095609;28;19993;-85
2021/07/08 04:10:41;;;;;;;;;;;12.80;99.90;;;;;;5095572;28;19924;-86
2021/07/08 04:13:09;;;;;;;;;;;12.90;99.90;;;;;;5095484;28;19924;-85
2021/07/08 04:15:39;;;;;;;;;;;12.90;99.90;;;;;;5095457;28;20344;-84
2021/07/08 04:18:06;;;;;;;;;;;12.90;99.90;;;;;;5095532;28;19951;-83
2021/07/08 04:20:33;;;;;;;;;;;12.90;99.90;;;;;;5094812;28;19938;-83
2021/07/08 04:23:00;;;;;;;;;;;13.00;99.90;;;;;;5095529;28;19928;-83
2021/07/08 04:25:27;;;;;;;;;;;13.00;99.90;;;;;;5095192;28;20310;-84
2021/07/08 04:27:54;;;;;;;;;;;13.00;99.90;;;;;;5095116;28;19924;-84
2021/07/08 04:30:23;;;;;;;;;;;13.00;99.90;;;;;;5095021;28;19950;-84
2021/07/08 04:32:50;;;;;;;;;;;13.00;99.90;;;;;;5095359;28;19950;-84
2021/07/08 04:35:19;;;;;;;;;;;13.00;99.90;;;;;;5095269;28;19934;-84
2021/07/08 04:37:46;;;;;;;;;;;13.10;99.90;;;;;;5095093;28;19924;-84
2021/07/08 04:40:14;;;;;;;;;;;13.10;99.90;;;;;;5095348;28;19967;-83
2021/07/08 04:42:41;;;;;;;;;;;13.10;99.90;;;;;;5095426;28;20251;-84
2021/07/08 04:45:09;;;;;;;;;;;13.10;99.90;;;;;;5095060;28;19928;-84
2021/07/08 04:47:38;;;;;;;;;;;13.10;99.90;;;;;;5095198;28;19925;-84
2021/07/08 04:50:05;;;;;;;;;;;13.10;99.90;;;;;;5095018;28;19924;-84
2021/07/08 04:52:32;;;;;;;;;;;13.20;99.90;;;;;;5095020;28;20356;-83
2021/07/08 04:54:59;;;;;;;;;;;13.20;99.90;;;;;;5094918;28;19925;-83
2021/07/08 04:57:26;;;;;;;;;;;13.30;99.90;;;;;;5094938;28;19970;-84
2021/07/08 04:59:53;;;;;;;;;;;13.30;99.90;;;;;;5094908;28;19934;-83
2021/07/08 05:02:20;;;;;;;;;;;13.40;99.90;;;;;;5090555;28;19928;-83
2021/07/08 05:04:48;;;;;;;;;;;13.40;99.90;;;;;;5093767;28;19924;-84
2021/07/08 05:07:16;;;;;;;;;;;13.40;99.90;;;;;;5094725;28;19924;-83
2021/07/08 05:09:43;;;;;;;;;;;13.50;99.90;;;;;;5095116;28;19990;-83
2021/07/08 05:12:10;;;;;;;;;;;13.60;99.90;;;;;;5095121;28;19924;-83
2021/07/08 05:14:37;;;;;;;;;;;13.60;99.90;;;;;;5097814;28;20332;-83
2021/07/08 05:17:04;;;;;;;;;;;13.70;99.90;;;;;;5098630;28;19924;-83
2021/07/08 05:19:31;;;;;;;;;;;13.70;99.90;;;;;;5098740;28;19925;-83
2021/07/08 05:22:00;;;;;;;;;;;13.80;99.90;;;;;;5098592;28;19924;-83
2021/07/08 05:24:27;;;;;;;;;;;13.80;99.90;;;;;;5098402;28;19924;-83
2021/07/08 05:26:54;;;;;;;;;;;13.80;99.90;;;;;;5103557;28;20011;-83
2021/07/08 05:29:22;;;;;;;;;;;13.80;99.90;;;;;;5119236;28;20324;-82
2021/07/08 05:31:48;;;;;;;;;;;13.90;99.90;;;;;;5119186;28;19923;-83
2021/07/08 05:34:15;;;;;;;;;;;13.90;99.90;;;;;;5118823;28;19924;-82
2021/07/08 05:36:42;;;;;;;;;;;14.00;99.90;;;;;;5118803;28;19924;-83
2021/07/08 05:39:10;;;;;;;;;;;14.00;99.90;;;;;;5118730;28;20348;-83
2021/07/08 05:41:37;;;;;;;;;;;14.00;99.90;;;;;;5118621;28;19934;-83
2021/07/08 05:44:04;;;;;;;;;;;14.20;99.90;;;;;;5118515;28;19924;-83
2021/07/08 05:46:31;;;;;;;;;;;14.30;99.90;;;;;;5118430;28;19924;-83
2021/07/08 05:48:58;;;;;;;;;;;14.40;99.90;;;;;;5118765;28;19934;-83
2021/07/08 05:51:25;;;;;;;;;;;14.50;99.90;;;;;;5118515;28;19923;-83
2021/07/08 05:53:53;;;;;;;;;;;14.70;99.90;;;;;;5118381;28;19930;-83
2021/07/08 05:56:21;;;;;;;;;;;14.80;99.90;;;;;;5118118;28;19923;-83
2021/07/08 05:58:48;;;;;;;;;;;14.80;99.90;;;;;;5118121;28;19923;-83
2021/07/08 06:01:15;;;;;;;;;;;14.80;99.90;;;;;;5118167;28;19930;-83
2021/07/08 06:03:42;;;;;;;;;;;14.80;99.90;;;;;;5118559;28;19924;-83
2021/07/08 06:06:08;;;;;;;;;;;14.90;99.90;;;;;;5118145;28;20018;-83
2021/07/08 06:08:35;;;;;;;;;;;14.90;99.90;;;;;;5118083;28;19923;-83
2021/07/08 06:11:02;;;;;;;;;;;15.00;99.90;;;;;;5118235;28;19930;-83
2021/07/08 06:13:31;;;;;;;;;;;15.10;99.90;;;;;;5117949;28;19937;-84
2021/07/08 06:15:58;;;;;;;;;;;15.10;99.90;;;;;;5118173;28;20221;-82
2021/07/08 06:18:25;;;;;;;;;;;15.10;99.90;;;;;;5116698;28;19930;-84
2021/07/08 06:20:52;;;;;;;;;;;15.20;99.90;;;;;;5117600;28;19931;-81
2021/07/08 06:23:20;;;;;;;;;;;15.30;99.90;;;;;;5117729;28;20336;-78
2021/07/08 06:25:47;;;;;;;;;;;15.50;99.90;;;;;;5116946;28;19924;-78
2021/07/08 06:28:14;;;;;;;;;;;15.60;99.90;;;;;;5117572;28;19934;-80
2021/07/08 06:30:42;;;;;;;;;;;15.70;99.90;;;;;;5117637;28;19923;-80
2021/07/08 06:33:09;;;;;;;;;;;15.70;99.90;;;;;;5117650;28;19923;-80
2021/07/08 06:35:36;;;;;;;;;;;15.60;99.90;;;;;;5117610;28;19924;-82
2021/07/08 06:38:03;;;;;;;;;;;15.70;99.90;;;;;;5117636;28;19938;-83
2021/07/08 06:40:30;;;;;;;;;;;15.90;99.90;;;;;;5117433;28;19924;-83
2021/07/08 06:42:58;;;;;;;;;;;16.20;99.90;;;;;;5116891;28;19934;-85
2021/07/08 06:45:25;;;;;;;;;;;16.60;99.90;;;;;;5120140;28;20455;-84
2021/07/08 06:48:01;;;;;;;;;;;17.00;99.90;;;;;;5121235;28;20320;-83
2021/07/08 06:50:28;;;;;;;;;;;17.60;99.90;;;;;;5118432;28;19919;-86
2021/07/08 06:52:55;;;;;;;;;;;18.50;99.90;;;;;;5117362;28;19920;-86
2021/07/08 06:55:22;;;;;;;;;;;19.60;99.90;;;;;;5117572;28;19919;-85
2021/07/08 06:57:51;;;;;;;;;;;20.40;99.90;;;;;;5116985;28;20244;-85
2021/07/08 07:00:19;;;;;;;;;;;21.40;99.90;;;;;;5117279;28;19919;-86
2021/07/08 07:02:46;;;;;;;;;;;22.30;99.90;;;;;;5116905;28;19919;-86
2021/07/08 07:05:14;;;;;;;;;;;22.90;99.90;;;;;;5117074;28;19976;-86
2021/07/08 07:07:41;;;;;;;;;;;22.70;99.90;;;;;;5116737;28;19930;-86
2021/07/08 07:10:08;;;;;;;;;;;22.60;99.90;;;;;;5117031;28;19919;-86
2021/07/08 07:12:40;;;;;;;;;;;22.30;99.90;;;;;;5116797;28;19920;-86
2021/07/08 07:15:07;;;;;;;;;;;22.70;99.90;;;;;;5116159;28;20415;-86
2021/07/08 07:17:35;;;;;;;;;;;24.20;99.90;;;;;;5116865;28;19953;-86
2021/07/08 07:20:03;;;;;;;;;;;25.90;99.90;;;;;;5092864;28;19928;-86
2021/07/08 07:22:31;;;;;;;;;;;27.60;99.90;;;;;;5095986;28;20378;-86
2021/07/08 07:24:58;;;;;;;4.75;3.28;;;28.90;99.90;;;;;;5093704;28;20420;-86
2021/07/08 07:27:25;;;;;;;3.97;3.03;;;29.90;99.90;;;;;;5095515;28;20083;-86
2021/07/08 07:29:53;;;;;;;4.78;2.55;;;30.70;99.90;;;;;;5095640;28;20048;-86
2021/07/08 07:32:20;;;;;;;4.47;2.75;;;31.30;97.30;;;;;;5095443;28;20456;-86
2021/07/08 07:34:47;;;;;;;3.08;2.15;;;31.20;93.80;;;;;;5095517;28;20044;-86
2021/07/08 07:37:14;;;;;;;3.75;2.20;;;31.00;71.00;;;;;;5094712;28;20078;-86
2021/07/08 07:39:43;;;;;;;5.03;2.13;;;31.00;78.90;;;;;;5095407;28;20048;-86
2021/07/08 07:42:10;;;;;;;2.90;2.17;;;31.40;83.60;;;;;;5095426;28;20056;-86
2021/07/08 07:44:43;;;;;;;3.83;2.25;;;31.20;64.90;;;;;;5095548;28;20051;-85
2021/07/08 07:47:10;;;;;;;1.83;1.50;;;30.40;77.70;;;;;;5095232;28;20059;-85
2021/07/08 07:49:37;;;;;;;2.63;1.30;;;30.10;82.40;;;;;;5095282;28;20052;-86
2021/07/08 07:52:06;;;;;;;3.40;1.60;;;30.40;89.10;;;;;;5095375;28;20055;-86
2021/07/08 07:54:33;;;;;;;3.13;2.08;;;30.30;69.80;;;;;;5095097;28;20109;-86
2021/07/08 07:57:04;;;;;;;5.65;2.53;;;29.30;79.00;;;;;;5094993;28;20052;-86
2021/07/08 07:59:31;;;;;;;3.05;1.63;;;27.60;90.80;;;;;;5095124;28;20127;-86
2021/07/08 08:01:58;;;;;;;4.72;2.30;;;26.10;98.10;;;;;;5095200;28;20058;-86
2021/07/08 08:04:29;;;;;;;2.53;1.33;;;25.10;99.90;;;;;;5095035;28;20482;-86
2021/07/08 08:09:40;;;;;;;4.03;1.70;;;23.70;99.90;;;;;;5094999;28;20058;-86
2021/07/08 08:12:09;;;;;;;4.85;2.00;;;23.00;99.90;;;;;;5094847;28;20044;-86
2021/07/08 08:14:37;;;;;;;3.08;1.35;;;22.50;99.90;;;;;;5094730;28;20479;-86
2021/07/08 08:17:05;;;;;;;2.45;1.90;;;22.00;99.90;;;;;;5094852;28;20043;-85
2021/07/08 08:19:32;;;;;;;2.80;1.90;;;21.60;99.90;;;;;;5094951;28;20048;-86
2021/07/08 08:21:59;;;;;;;2.83;2.40;;;21.10;99.90;;;;;;5094750;28;20044;-85
2021/07/08 08:24:26;;;;;;;3.13;2.63;;;20.70;99.90;;;;;;5094702;28;20054;-86
2021/07/08 08:26:53;;;;;;;4.47;2.22;;;21.00;99.90;;;;;;5100198;28;20359;-86
2021/07/08 08:29:24;;;;;;;3.70;2.42;;;21.60;99.90;;;;;;5113241;28;20044;-86
2021/07/08 08:31:51;;;;;;;1.88;1.40;;;21.60;99.90;;;;;;5094717;28;20105;-86
2021/07/08 08:34:18;;;;;;;4.18;2.20;;;21.30;99.90;;;;;;5094642;28;20050;-86
2021/07/08 08:36:45;;;;;;;;;;;20.80;99.90;;;;;;5094950;28;20503;-86
2021/07/08 08:39:12;;;;;;;;;;;20.40;99.90;;;;;;5095137;28;19920;-86
2021/07/08 08:41:39;;;;;;;;;;;20.00;99.90;;;;;;5095109;28;19920;-86
2021/07/08 08:44:06;;;;;;;;;;;19.60;99.90;;;;;;5095225;28;20298;-86
2021/07/08 08:46:34;;;;;;;;;;;19.30;99.90;;;;;;5094993;28;19924;-86
2021/07/08 08:49:01;;;;;;;;;;;19.10;99.90;;;;;;5097337;28;20358;-86
2021/07/08 08:51:28;;;;;;;;;;;18.90;99.90;;;;;;5098978;28;20249;-86
2021/07/08 08:53:55;;;;;;;;;;;19.00;99.90;;;;;;5098953;28;19930;-86
2021/07/08 08:56:22;;;;;;;;;;;19.10;99.90;;;;;;5098798;28;19920;-86
2021/07/08 08:58:51;;;;;;;;;;;19.20;99.90;;;;;;5098508;28;19920;-86
2021/07/08 09:01:18;;;;;;;;;;;19.20;99.90;;;;;;5098856;28;19920;-86
2021/07/08 09:03:47;;;;;;;;;;;19.30;99.90;;;;;;5098909;28;19924;-87
2021/07/08 09:06:14;;;;;;;;;;;19.30;99.90;;;;;;5098845;28;19919;-87
2021/07/08 09:08:44;;;;;;;;;;;19.30;99.90;;;;;;5098687;28;19919;-84
2021/07/08 09:11:12;;;;;;;;;;;19.30;99.90;;;;;;5098922;28;19920;-85
2021/07/08 09:13:46;;;;;;;;;;;19.20;99.90;;;;;;5098098;28;19920;-84
2021/07/08 09:16:13;;;;;;;;;;;19.20;99.90;;;;;;5098527;28;19920;-84
2021/07/08 09:18:40;;;;;;;;;;;19.10;99.90;;;;;;5098883;28;19930;-85
2021/07/08 09:21:16;;;;;;;;;;;19.00;99.90;;;;;;5099000;28;19930;-84
2021/07/08 09:23:57;;;;;;;;;;;18.90;99.90;;;;;;5098802;28;19927;-85
2021/07/08 09:26:24;;;;;;;;;;;19.00;99.90;;;;;;5098227;28;19927;-84
2021/07/08 09:28:51;;;;;;;;;;;19.10;99.90;;;;;;5098127;28;19924;-84
2021/07/08 09:31:18;;;;;;;;;;;19.30;99.90;;;;;;5098422;28;20343;-84
2021/07/08 09:33:45;;;;;;;;;;;19.40;99.90;;;;;;5098336;28;19924;-85
2021/07/08 09:36:12;;;;;;;;;;;19.50;99.90;;;;;;5098398;28;20002;-85
2021/07/08 09:38:41;;;;;;;;;;;19.50;99.90;;;;;;5098546;28;19927;-85
2021/07/08 09:41:09;;;;;;;;;;;19.50;99.90;;;;;;5098482;28;20270;-85
2021/07/08 09:43:38;;;;;;;;;;;19.60;99.90;;;;;;5098001;28;19926;-84
2021/07/08 09:46:05;;;;;;;;;;;19.60;99.90;;;;;;5098033;28;19924;-84
2021/07/08 09:48:32;;;;;;;;;;;19.80;99.90;;;;;;5098284;28;19920;-83
2021/07/08 09:50:59;;;;;;;;;;;19.80;99.90;;;;;;5097938;28;19920;-84
2021/07/08 09:53:26;;;;;;;;;;;19.90;99.90;;;;;;5097945;28;20256;-83
2021/07/08 09:56:08;;;;;;;;;;;19.90;99.90;;;;;;5098329;28;19931;-83
2021/07/08 09:58:35;;;;;;;;;;;20.00;99.90;;;;;;5098076;28;19920;-84
2021/07/08 10:01:10;;;;;;;;;;;19.90;99.90;;;;;;5096854;28;19923;-84
2021/07/08 10:03:36;;;;;;;;;;;19.90;99.90;;;;;;5097955;28;20010;-84
2021/07/08 10:06:03;;;;;;;;;;;19.80;99.90;;;;;;5097723;28;19923;-84
2021/07/08 10:08:30;;;;;;;;;;;19.80;99.90;;;;;;5097611;28;19920;-84
2021/07/08 10:10:58;;;;;;;;;;;19.90;99.90;;;;;;5097936;28;20002;-84
2021/07/08 10:13:25;;;;;;;;;;;20.00;99.90;;;;;;5097848;28;19934;-84
2021/07/08 10:15:52;;;;;;;;;;;20.10;99.90;;;;;;5097647;28;19920;-84
2021/07/08 10:18:19;;;;;;;;;;;20.10;99.90;;;;;;5097971;28;19924;-84
2021/07/08 10:20:48;;;;;;;;;;;20.10;99.90;;;;;;5097511;28;20240;-84
2021/07/08 10:23:15;;;;;;;;;;;20.10;99.90;;;;;;5097486;28;20335;-84
2021/07/08 10:25:42;;;;;;;;;;;20.20;99.90;;;;;;5097561;28;19920;-84
2021/07/08 10:28:10;;;;;;;;;;;20.20;99.90;;;;;;5097372;28;19920;-83
2021/07/08 10:30:37;;;;;;;;;;;20.20;99.90;;;;;;5097559;28;20344;-84
2021/07/08 10:33:04;;;;;;;;;;;20.00;99.90;;;;;;5097313;28;19920;-83
2021/07/08 10:35:37;;;;;;;;;;;20.00;99.90;;;;;;5097587;28;20252;-84
2021/07/08 10:38:19;;;;;;;;;;;19.90;99.90;;;;;;5097477;28;19930;-83
2021/07/08 10:40:46;;;;;;;;;;;19.90;99.90;;;;;;5097082;28;19923;-83
2021/07/08 10:43:14;;;;;;;;;;;19.90;99.90;;;;;;5097135;28;19930;-84
2021/07/08 10:45:43;;;;;;;;;;;20.00;99.90;;;;;;5095902;28;19920;-86
2021/07/08 10:48:10;;;;;;;;;;;20.00;99.90;;;;;;5097226;28;19920;-84
2021/07/08 10:50:38;;;;;;;;;;;19.90;99.90;;;;;;5096665;28;19920;-83
2021/07/08 10:53:21;;;;;;;;;;;19.90;99.90;;;;;;5095986;28;19928;-83
2021/07/08 10:55:48;;;;;;;;;;;20.00;99.90;;;;;;5096325;28;19932;-86
2021/07/08 10:58:36;;;;;;;;;;;19.90;99.90;;;;;;5113495;28;20266;-85
2021/07/08 11:01:05;;;;;;;;;;;19.80;99.90;;;;;;5114985;28;19924;-85
2021/07/08 11:03:42;;;;;;;;;;;19.80;99.90;;;;;;5117011;28;20344;-84
2021/07/08 11:06:19;;;;;;;;;;;19.80;99.90;;;;;;5117234;28;19919;-84
2021/07/08 11:09:04;;;;;;;;;;;20.00;99.90;;;;;;5116794;28;19931;-84
2021/07/08 11:11:50;;;;;;;;;;;20.10;99.90;;;;;;5116784;28;19920;-82
2021/07/08 11:14:26;;;;;;;;;;;20.20;99.90;;;;;;5116366;28;20227;-82
2021/07/08 11:16:55;;;;;;;;;;;20.10;99.90;;;;;;5115749;28;19978;-85
2021/07/08 11:19:32;;;;;;;;;;;20.10;99.90;;;;;;5122678;28;19973;-84
2021/07/08 11:21:59;;;;;;;;;;;20.10;99.90;;;;;;5116802;28;19977;-85
2021/07/08 11:24:26;;;;;;;;;;;20.00;99.90;;;;;;5116702;28;19954;-84
2021/07/08 11:26:53;;;;;;;;;;;20.00;99.90;;;;;;5116456;28;19934;-86
2021/07/08 11:29:32;;;;;;;;;;;19.90;99.90;;;;;;5116541;28;19923;-85
2021/07/08 11:32:00;;;;;;;;;;;19.90;99.90;;;;;;5116520;28;20026;-84
2021/07/08 11:34:27;;;;;;;;;;;20.00;99.90;;;;;;5116424;28;19923;-84
2021/07/08 11:36:55;;;;;;;;;;;20.10;99.90;;;;;;5116403;28;20328;-84
2021/07/08 11:39:22;;;;;;;;;;;20.10;99.90;;;;;;5116327;28;20347;-84
2021/07/08 11:41:49;;;;;;;;;;;20.10;99.90;;;;;;5116185;28;19931;-80
2021/07/08 11:44:16;;;;;;;;;;;20.10;99.90;;;;;;5115950;28;19928;-84
2021/07/08 11:46:43;;;;;;;;;;;20.10;99.90;;;;;;5115750;28;19934;-83
2021/07/08 11:49:11;;;;;;;;;;;20.20;99.90;;;;;;5116375;28;19934;-83
2021/07/08 11:51:38;;;;;;;;;;;20.20;99.90;;;;;;5116254;28;19945;-82
2021/07/08 11:54:06;;;;;;;;;;;20.10;99.90;;;;;;5116128;28;20336;-85
2021/07/08 11:56:33;;;;;;;;;;;20.00;99.90;;;;;;5115981;28;19938;-84
2021/07/08 11:59:04;;;;;;;;;;;19.90;99.90;;;;;;5115966;28;19934;-84
2021/07/08 12:01:31;;;;;;;;;;;19.90;99.90;;;;;;5116044;28;19924;-85
2021/07/08 12:03:59;;;;;;;;;;;19.90;99.90;;;;;;5115963;28;20344;-84
2021/07/08 12:06:28;;;;;;;;;;;19.90;99.90;;;;;;5115688;28;19935;-84
2021/07/08 12:08:56;;;;;;;;;;;19.90;99.90;;;;;;5116303;28;19953;-88
2021/07/08 12:11:28;;;;;;;;;;;19.80;99.90;;;;;;5115930;28;19924;-84
2021/07/08 12:13:55;;;;;;;;;;;19.80;99.90;;;;;;5115821;28;20344;-85
2021/07/08 12:16:27;;;;;;;;;;;19.70;99.90;;;;;;5115757;28;19923;-85
2021/07/08 12:18:54;;;;;;;;;;;19.60;99.90;;;;;;5115949;28;20323;-84
2021/07/08 12:21:25;;;;;;;;;;;19.60;99.90;;;;;;5115839;28;20256;-84
2021/07/08 12:23:53;;;;;;;;;;;19.70;99.90;;;;;;5115122;28;19923;-85
2021/07/08 12:26:21;;;;;;;;;;;19.80;99.90;;;;;;5114204;28;19990;-84
2021/07/08 12:28:48;;;;;;;;;;;19.90;99.90;;;;;;5095599;28;19968;-85
2021/07/08 12:31:18;;;;;;;;;;;19.90;99.90;;;;;;5095437;28;19924;-85
2021/07/08 12:33:52;;;;;;;;;;;19.90;99.90;;;;;;5095225;28;20307;-85
2021/07/08 12:36:19;;;;;;;;;;;19.90;99.90;;;;;;5095499;28;19924;-85
2021/07/08 12:38:47;;;;;;;;;;;19.90;99.90;;;;;;5095153;28;19924;-85
2021/07/08 12:41:17;;;;;;;;;;;20.00;99.90;;;;;;5095176;28;19924;-84
2021/07/08 12:43:44;;;;;;;;;;;20.10;99.90;;;;;;5095745;28;19924;-83
2021/07/08 12:46:11;;;;;;;;;;;20.10;99.90;;;;;;5095339;28;20230;-89
2021/07/08 12:48:38;;;;;;;;;;;20.20;99.90;;;;;;5095413;28;20336;-87
2021/07/08 12:51:05;;;;;;;;;;;20.20;99.90;;;;;;5095424;28;20367;-89
2021/07/08 12:53:32;;;;;;;;;;;20.20;99.90;;;;;;5095513;28;20001;-86
2021/07/08 12:56:00;;;;;;;;;;;20.20;99.90;;;;;;5095260;28;20242;-86
2021/07/08 12:58:28;;;;;;;;;;;20.10;99.90;;;;;;5095188;28;19924;-89
2021/07/08 13:01:01;;;;;;;;;;;20.20;99.90;;;;;;5095417;28;20359;-89
2021/07/08 13:03:28;;;;;;;;;;;20.20;99.90;;;;;;5095396;28;19935;-85
2021/07/08 13:05:55;;;;;;;;;;;20.20;99.90;;;;;;5095082;28;19924;-87
2021/07/08 13:08:24;;;;;;;;;;;20.20;99.90;;;;;;5095152;28;20260;-87
2021/07/08 13:10:52;;;;;;;;;;;20.30;99.90;;;;;;5095064;28;19982;-87
2021/07/08 13:13:23;;;;;;;;;;;20.40;99.90;;;;;;5095055;28;19924;-87
2021/07/08 13:15:52;;;;;;;;;;;20.50;99.90;;;;;;5095327;28;19964;-87
2021/07/08 13:18:19;;;;;;;;;;;20.60;99.90;;;;;;5095403;28;19942;-87
2021/07/08 13:20:46;;;;;;;;;;;20.50;99.90;;;;;;5094812;28;19935;-87
2021/07/08 13:23:13;;;;;;;;;;;20.50;99.90;;;;;;5095128;28;19924;-86
2021/07/08 13:25:40;;;;;;;;;;;20.40;99.90;;;;;;5095226;28;19931;-87
2021/07/08 13:28:17;;;;;;;;;;;20.40;99.90;;;;;;5094554;28;19934;-87
2021/07/08 13:30:45;;;;;;;;;;;20.40;99.90;;;;;;5094760;28;19935;-87
2021/07/08 13:33:13;;;;;;;;;;;20.30;99.90;;;;;;5095090;28;20006;-87
2021/07/08 13:35:51;;;;;;;;;;;20.30;99.90;;;;;;5097690;28;19924;-85
2021/07/08 13:38:19;;;;;;;;;;;20.40;99.90;;;;;;5098286;28;20425;-86
2021/07/08 13:40:58;;;;;;;;;;;20.50;99.90;;;;;;5098608;28;19924;-87
2021/07/08 13:43:31;;;;;;;;;;;20.50;99.90;;;;;;5098242;28;19924;-87
2021/07/08 13:46:07;;;;;;;;;;;20.60;99.90;;;;;;5097659;28;19924;-87
2021/07/08 13:48:37;;;;;;;;;;;20.70;99.90;;;;;;5098209;28;19924;-87
2021/07/08 13:51:04;;;;;;;;;;;20.80;99.90;;;;;;5098239;28;19924;-87
2021/07/08 13:53:31;;;;;;;;;;;20.80;99.90;;;;;;5098006;28;20279;-87
2021/07/08 13:55:58;;;;;;;;;;;20.90;99.90;;;;;;5098125;28;20399;-87
2021/07/08 13:58:25;;;;;;;;;;;20.90;99.90;;;;;;5097885;28;20337;-87
2021/07/08 14:00:52;;;;;;;;;;;20.80;99.90;;;;;;5098262;28;19934;-88
2021/07/08 14:03:19;;;;;;;;;;;20.80;99.90;;;;;;5098175;28;19924;-87
2021/07/08 14:05:47;;;;;;;;;;;20.60;99.90;;;;;;5098191;28;19947;-87
2021/07/08 14:08:16;;;;;;;;;;;20.50;99.90;;;;;;5097590;28;19950;-87
2021/07/08 14:10:43;;;;;;;;;;;20.50;99.90;;;;;;5097658;28;19935;-87
2021/07/08 14:13:10;;;;;;;;;;;20.50;99.90;;;;;;5098088;28;19924;-87
2021/07/08 14:15:37;;;;;;;;;;;20.50;99.90;;;;;;5097801;28;19924;-87